Time;durP1;ratioP1;P1;durP2;ratioP2;P2;SDS_P1;SDS_P2;PMS_P1;PMS_P2;Temp;Humidity;BMP_temperature;BMP_pressure;BME280_temperature;BME280_humidity;BME280_pressure;Samples;Min_cycle;Max_cycle;Signal;HPM_P1;HPM_P2
2023/09/09 00:01:35;;;;;;;1999.90;999.90;;;22.20;99.90;;;;;;5094532;28;20387;-80
2023/09/09 00:04:03;;;;;;;1999.90;999.90;;;22.10;99.90;;;;;;5095460;28;20040;-75
2023/09/09 00:06:28;;;;;;;1999.90;999.90;;;22.10;99.90;;;;;;5095838;28;20103;-80
2023/09/09 00:08:54;;;;;;;1999.90;999.90;;;22.00;99.90;;;;;;5085665;28;20095;-80
2023/09/09 00:11:20;;;;;;;1999.90;999.90;;;22.00;99.90;;;;;;5075691;28;20050;-76
2023/09/09 00:13:46;;;;;;;1999.90;999.90;;;22.00;99.90;;;;;;5079441;28;20013;-76
2023/09/09 00:16:12;;;;;;;1999.90;999.90;;;22.00;99.90;;;;;;5091157;28;20076;-82
2023/09/09 00:18:38;;;;;;;1999.90;999.90;;;21.90;99.90;;;;;;5080411;28;20036;-81
2023/09/09 00:21:04;;;;;;;1999.90;999.90;;;21.90;99.90;;;;;;5084662;28;20023;-82
2023/09/09 00:23:30;;;;;;;1999.90;999.90;;;21.90;99.90;;;;;;5080963;28;20425;-75
2023/09/09 00:25:56;;;;;;;1999.90;999.90;;;21.80;99.90;;;;;;5096028;28;20024;-75
2023/09/09 00:28:23;;;;;;;1999.90;999.90;;;21.80;99.90;;;;;;5100623;28;20491;-80
2023/09/09 00:30:48;;;;;;;1999.90;999.90;;;21.70;99.90;;;;;;5096862;28;20388;-80
2023/09/09 00:33:14;;;;;;;1999.90;999.90;;;21.70;99.90;;;;;;5095387;28;20035;-80
2023/09/09 00:35:39;;;;;;;1999.90;999.90;;;21.60;99.90;;;;;;5094075;28;20390;-80
2023/09/09 00:38:07;;;;;;;1999.90;999.90;;;21.50;99.90;;;;;;5093796;28;20031;-75
2023/09/09 00:40:32;;;;;;;1999.90;999.90;;;21.50;99.90;;;;;;5093766;28;20016;-80
2023/09/09 00:42:58;;;;;;;1999.90;999.90;;;21.40;99.90;;;;;;5095164;28;20548;-75
2023/09/09 00:45:28;;;;;;;1999.90;999.90;;;21.40;99.90;;;;;;5093963;28;20055;-80
2023/09/09 00:47:55;;;;;;;1999.90;999.90;;;21.40;99.90;;;;;;5095286;28;20455;-75
2023/09/09 00:50:22;;;;;;;1999.90;999.90;;;21.30;99.90;;;;;;5095109;28;20391;-75
2023/09/09 00:52:48;;;;;;;1999.90;999.90;;;21.30;99.90;;;;;;5094742;28;20032;-79
2023/09/09 00:55:14;;;;;;;1999.90;999.90;;;21.30;99.90;;;;;;5074534;28;20024;-80
2023/09/09 00:57:40;;;;;;;1999.90;999.90;;;21.30;99.90;;;;;;5083432;28;20024;-81
2023/09/09 01:00:12;;;;;;;1999.90;999.90;;;21.30;99.90;;;;;;5085716;28;20024;-75
2023/09/09 01:02:41;;;;;;;1999.90;999.90;;;21.30;99.90;;;;;;5094821;28;20107;-75
2023/09/09 01:05:08;;;;;;;1999.90;999.90;;;21.20;99.90;;;;;;5094414;28;20564;-80
2023/09/09 01:07:44;;;;;;;1999.90;999.90;;;21.20;99.90;;;;;;5094635;28;20043;-76
2023/09/09 01:10:10;;;;;;;1999.90;999.90;;;21.20;99.90;;;;;;5054815;28;20024;-80
2023/09/09 01:12:36;;;;;;;1999.90;999.90;;;21.20;99.90;;;;;;5074340;28;20415;-76
2023/09/09 01:15:02;;;;;;;1999.90;999.90;;;21.20;99.90;;;;;;5079786;28;20039;-76
2023/09/09 01:17:29;;;;;;;1999.90;999.90;;;21.10;99.90;;;;;;5091948;28;20032;-76
2023/09/09 01:19:58;;;;;;;1999.90;999.90;;;21.00;99.90;;;;;;5093046;28;20024;-80
2023/09/09 01:22:24;;;;;;;1999.90;999.90;;;21.00;99.90;;;;;;5094580;28;20016;-80
2023/09/09 01:24:49;;;;;;;1999.90;999.90;;;21.00;99.90;;;;;;5094264;28;20032;-80
2023/09/09 01:27:15;;;;;;;1999.90;999.90;;;20.90;99.90;;;;;;5094456;28;20028;-75
2023/09/09 01:29:40;;;;;;;1999.90;999.90;;;20.90;99.90;;;;;;5094087;28;20050;-75
2023/09/09 01:32:06;;;;;;;1999.90;999.90;;;20.90;99.90;;;;;;5094364;28;20528;-75
2023/09/09 01:34:32;;;;;;;1999.90;999.90;;;20.80;99.90;;;;;;5094184;28;20055;-80
2023/09/09 01:36:57;;;;;;;1999.90;999.90;;;20.80;99.90;;;;;;5093968;28;20075;-80
2023/09/09 01:39:24;;;;;;;1999.90;999.90;;;20.70;99.90;;;;;;5092862;28;20024;-80
2023/09/09 01:41:50;;;;;;;1999.90;999.90;;;20.70;99.90;;;;;;5094037;28;20012;-75
2023/09/09 01:44:15;;;;;;;1999.90;999.90;;;20.60;99.90;;;;;;5094042;28;20024;-75
2023/09/09 01:46:41;;;;;;;1999.90;999.90;;;20.60;99.90;;;;;;5093811;28;20483;-80
2023/09/09 01:49:06;;;;;;;1999.90;999.90;;;20.60;99.90;;;;;;5093994;28;20095;-80
2023/09/09 01:51:33;;;;;;;1999.90;999.90;;;20.60;99.90;;;;;;5092454;28;20399;-80
2023/09/09 01:53:58;;;;;;;1999.90;999.90;;;20.50;99.90;;;;;;5093737;28;20020;-75
2023/09/09 01:56:24;;;;;;;1999.90;999.90;;;20.50;99.90;;;;;;5088353;28;20039;-80
2023/09/09 01:58:50;;;;;;;1999.90;999.90;;;20.50;99.90;;;;;;5084624;28;20024;-80
2023/09/09 02:01:15;;;;;;;1999.90;999.90;;;20.50;99.90;;;;;;5082971;28;20064;-80
2023/09/09 02:03:41;;;;;;;1999.90;999.90;;;20.40;99.90;;;;;;5091768;28;20020;-80
2023/09/09 02:06:06;;;;;;;1999.90;999.90;;;20.50;99.90;;;;;;5093219;28;20016;-80
2023/09/09 02:08:32;;;;;;;1999.90;999.90;;;20.50;99.90;;;;;;5086347;28;20025;-75
2023/09/09 02:10:58;;;;;;;1999.90;999.90;;;20.50;99.90;;;;;;5073344;28;20432;-80
2023/09/09 02:13:23;;;;;;;1999.90;999.90;;;20.50;99.90;;;;;;5074546;28;20027;-75
2023/09/09 02:15:49;;;;;;;1999.90;999.90;;;20.50;99.90;;;;;;5082109;28;20032;-80
2023/09/09 02:18:14;;;;;;;1999.90;999.90;;;20.50;99.90;;;;;;5093293;28;20020;-80
2023/09/09 02:20:40;;;;;;;1999.90;999.90;;;20.70;99.90;;;;;;5083859;28;20398;-75
2023/09/09 02:23:06;;;;;;;1999.90;999.90;;;20.80;99.90;;;;;;5073381;28;20067;-75
2023/09/09 02:25:31;;;;;;;1999.90;999.90;;;20.80;99.90;;;;;;5072361;28;20056;-75
2023/09/09 02:27:57;;;;;;;1999.90;999.90;;;20.90;99.90;;;;;;5073416;28;20052;-80
2023/09/09 02:30:22;;;;;;;1999.90;999.90;;;20.90;99.90;;;;;;5072812;28;20082;-80
2023/09/09 02:32:49;;;;;;;1999.90;999.90;;;20.80;99.90;;;;;;5073049;28;20028;-80
2023/09/09 02:35:14;;;;;;;1999.90;999.90;;;20.80;99.90;;;;;;5072974;28;20035;-76
2023/09/09 02:37:40;;;;;;;1999.90;999.90;;;20.80;99.90;;;;;;5072841;28;20028;-75
2023/09/09 02:40:06;;;;;;;1999.90;999.90;;;20.80;99.90;;;;;;5072792;28;20028;-80
2023/09/09 02:42:32;;;;;;;1999.90;999.90;;;20.80;99.90;;;;;;5073304;28;20096;-80
2023/09/09 02:44:57;;;;;;;1999.90;999.90;;;20.70;99.90;;;;;;5072554;28;20491;-80
2023/09/09 02:47:23;;;;;;;1999.90;999.90;;;20.70;99.90;;;;;;5073111;28;20103;-80
2023/09/09 02:49:51;;;;;;;1999.90;999.90;;;20.70;99.90;;;;;;5072893;28;20056;-80
2023/09/09 02:52:17;;;;;;;1999.90;999.90;;;20.80;99.90;;;;;;5073035;28;20024;-80
2023/09/09 02:54:42;;;;;;;1999.90;999.90;;;20.80;99.90;;;;;;5072199;28;20032;-80
2023/09/09 02:57:08;;;;;;;1999.90;999.90;;;20.80;99.90;;;;;;5074218;28;20111;-80
2023/09/09 02:59:36;;;;;;;1999.90;999.90;;;20.80;99.90;;;;;;5088178;28;20040;-75
2023/09/09 03:02:02;;;;;;;1999.90;999.90;;;20.80;99.90;;;;;;5072673;28;20434;-75
2023/09/09 03:04:27;;;;;;;1999.90;999.90;;;20.70;99.90;;;;;;5088225;28;20044;-80
2023/09/09 03:06:53;;;;;;;1999.90;999.90;;;20.70;99.90;;;;;;5093064;28;20401;-80
2023/09/09 03:09:20;;;;;;;1999.90;999.90;;;20.60;99.90;;;;;;5079164;28;20107;-80
2023/09/09 03:11:46;;;;;;;1999.90;999.90;;;20.70;99.90;;;;;;5081290;28;20024;-75
2023/09/09 03:14:11;;;;;;;1999.90;999.90;;;20.70;99.90;;;;;;5077814;28;20039;-80
2023/09/09 03:16:38;;;;;;;1999.90;999.90;;;20.70;99.90;;;;;;5082383;28;20029;-80
2023/09/09 03:19:03;;;;;;;1999.90;999.90;;;20.80;99.90;;;;;;5072878;28;20090;-80
2023/09/09 03:21:29;;;;;;;1999.90;999.90;;;20.90;99.90;;;;;;5071968;28;20017;-80
2023/09/09 03:23:55;;;;;;;1999.90;999.90;;;20.90;99.90;;;;;;5078853;28;20020;-80
2023/09/09 03:26:22;;;;;;;1999.90;999.90;;;21.00;99.90;;;;;;5092704;28;20024;-75
2023/09/09 03:28:49;;;;;;;1999.90;999.90;;;21.00;99.90;;;;;;5093275;28;20035;-80
2023/09/09 03:31:14;;;;;;;1999.90;999.90;;;21.00;99.90;;;;;;5092857;28;20532;-80
2023/09/09 03:33:40;;;;;;;1999.90;999.90;;;21.10;99.90;;;;;;5092633;28;20052;-80
2023/09/09 03:36:06;;;;;;;1999.90;999.90;;;21.10;99.90;;;;;;5092587;28;20030;-80
2023/09/09 03:38:32;;;;;;;1999.90;999.90;;;21.10;99.90;;;;;;5095239;28;20050;-80
2023/09/09 03:40:58;;;;;;;1999.90;999.90;;;21.10;99.90;;;;;;5096231;28;20550;-76
2023/09/09 03:43:23;;;;;;;1999.90;999.90;;;21.00;99.90;;;;;;5096845;28;20016;-76
2023/09/09 03:45:56;;;;;;;1999.90;999.90;;;20.90;99.90;;;;;;5100536;28;20029;-81
2023/09/09 03:48:22;;;;;;;1999.90;999.90;;;21.00;99.90;;;;;;5105207;28;20020;-80
2023/09/09 03:50:48;;;;;;;1999.90;999.90;;;21.00;99.90;;;;;;5105345;28;20051;-80
2023/09/09 03:53:14;;;;;;;1999.90;999.90;;;21.00;99.90;;;;;;5097951;28;20107;-75
2023/09/09 03:55:39;;;;;;;1999.90;999.90;;;21.00;99.90;;;;;;5098462;28;20107;-81
2023/09/09 03:58:05;;;;;;;1999.90;999.90;;;21.00;99.90;;;;;;5077318;28;20071;-81
2023/09/09 04:00:30;;;;;;;1999.90;999.90;;;21.10;99.90;;;;;;5077499;28;20021;-80
2023/09/09 04:02:56;;;;;;;1999.90;999.90;;;21.10;99.90;;;;;;5074493;28;20093;-75
2023/09/09 04:05:22;;;;;;;1999.90;999.90;;;21.10;99.90;;;;;;5092867;28;20044;-75
2023/09/09 04:07:48;;;;;;;1999.90;999.90;;;21.10;99.90;;;;;;5094734;28;20020;-75
2023/09/09 04:10:14;;;;;;;1999.90;999.90;;;21.10;99.90;;;;;;5075411;28;20039;-75
2023/09/09 04:12:39;;;;;;;1999.90;999.90;;;21.10;99.90;;;;;;5075665;28;20032;-80
2023/09/09 04:15:06;;;;;;;1999.90;999.90;;;21.10;99.90;;;;;;5081548;28;20103;-80
2023/09/09 04:17:32;;;;;;;1999.90;999.90;;;21.10;99.90;;;;;;5085726;28;20111;-80
2023/09/09 04:19:57;;;;;;;1999.90;999.90;;;21.10;99.90;;;;;;5080820;28;20060;-75
2023/09/09 04:22:23;;;;;;;1999.90;999.90;;;21.10;99.90;;;;;;5075080;28;20074;-80
2023/09/09 04:24:49;;;;;;;1999.90;999.90;;;21.10;99.90;;;;;;5089545;28;20032;-75
2023/09/09 04:27:14;;;;;;;1999.90;999.90;;;21.00;99.90;;;;;;5095697;28;20116;-80
2023/09/09 04:29:41;;;;;;;1999.90;999.90;;;21.00;99.90;;;;;;5093934;28;20024;-75
2023/09/09 04:32:06;;;;;;;1999.90;999.90;;;20.80;99.90;;;;;;5095418;28;20020;-75
2023/09/09 04:34:32;;;;;;;1999.90;999.90;;;20.80;99.90;;;;;;5095318;28;20039;-80
2023/09/09 04:36:57;;;;;;;1999.90;999.90;;;20.80;99.90;;;;;;5095326;28;20446;-75
2023/09/09 04:39:23;;;;;;;1999.90;999.90;;;20.80;99.90;;;;;;5095333;28;20028;-80
2023/09/09 04:41:48;;;;;;;1999.90;999.90;;;20.80;99.90;;;;;;5095169;28;20047;-80
2023/09/09 04:44:14;;;;;;;1999.90;999.90;;;20.80;99.90;;;;;;5095255;28;20085;-75
2023/09/09 04:46:40;;;;;;;1999.90;999.90;;;20.80;99.90;;;;;;5094810;28;20487;-75
2023/09/09 04:49:05;;;;;;;1999.90;999.90;;;20.80;99.90;;;;;;5093824;28;20070;-76
2023/09/09 04:51:31;;;;;;;1999.90;999.90;;;20.80;99.90;;;;;;5089768;28;20368;-80
2023/09/09 04:53:57;;;;;;;1999.90;999.90;;;20.80;99.90;;;;;;5085852;28;20146;-75
2023/09/09 04:56:23;;;;;;;1999.90;999.90;;;20.80;99.90;;;;;;5093833;28;20421;-75
2023/09/09 04:58:49;;;;;;;1999.90;999.90;;;20.70;99.90;;;;;;5094155;28;20050;-75
2023/09/09 05:01:14;;;;;;;1999.90;999.90;;;20.60;99.90;;;;;;5083060;28;20537;-80
2023/09/09 05:03:40;;;;;;;1999.90;999.90;;;20.50;99.90;;;;;;5082909;28;20056;-75
2023/09/09 05:06:06;;;;;;;1999.90;999.90;;;20.50;99.90;;;;;;5093887;28;20024;-80
2023/09/09 05:08:31;;;;;;;1999.90;999.90;;;20.60;99.90;;;;;;5087505;28;20098;-76
2023/09/09 05:10:57;;;;;;;1999.90;999.90;;;20.60;99.90;;;;;;5074250;28;20024;-79
2023/09/09 05:13:22;;;;;;;1999.90;999.90;;;20.60;99.90;;;;;;5075080;28;20036;-76
2023/09/09 05:15:50;;;;;;;1999.90;999.90;;;20.60;99.90;;;;;;5082879;28;20031;-80
2023/09/09 05:18:16;;;;;;;1999.90;999.90;;;20.60;99.90;;;;;;5094438;28;20028;-80
2023/09/09 05:20:43;;;;;;;1999.90;999.90;;;20.70;99.90;;;;;;5093219;28;20027;-80
2023/09/09 05:23:09;;;;;;;1999.90;999.90;;;20.70;99.90;;;;;;5079526;28;20024;-76
2023/09/09 05:25:34;;;;;;;1999.90;999.90;;;20.70;99.90;;;;;;5074945;28;20478;-80
2023/09/09 05:28:00;;;;;;;1999.90;999.90;;;20.70;99.90;;;;;;5072618;28;20036;-80
2023/09/09 05:30:26;;;;;;;1999.90;999.90;;;20.70;99.90;;;;;;5075019;28;20028;-80
2023/09/09 05:32:51;;;;;;;1999.90;999.90;;;20.60;99.90;;;;;;5074337;28;20029;-80
2023/09/09 05:35:17;;;;;;;1999.90;999.90;;;20.60;99.90;;;;;;5090739;28;20024;-75
2023/09/09 05:37:43;;;;;;;1999.90;999.90;;;20.60;99.90;;;;;;5093963;28;20467;-75
2023/09/09 05:40:09;;;;;;;1999.90;999.90;;;20.60;99.90;;;;;;5093873;28;20386;-75
2023/09/09 05:42:34;;;;;;;1999.90;999.90;;;20.60;99.90;;;;;;5083560;28;20571;-80
2023/09/09 05:45:01;;;;;;;1999.90;999.90;;;20.60;99.90;;;;;;5073831;28;20048;-75
2023/09/09 05:47:27;;;;;;;1999.90;999.90;;;20.60;99.90;;;;;;5072498;28;20047;-75
2023/09/09 05:49:53;;;;;;;1999.90;999.90;;;20.60;99.90;;;;;;5078249;28;20020;-80
2023/09/09 05:52:19;;;;;;;1999.90;999.90;;;20.60;99.90;;;;;;5094064;28;20024;-80
2023/09/09 05:54:44;;;;;;;1999.90;999.90;;;20.60;99.90;;;;;;5093887;28;20036;-80
2023/09/09 05:57:10;;;;;;;1999.90;999.90;;;20.60;99.90;;;;;;5092604;28;20115;-75
2023/09/09 05:59:37;;;;;;;1999.90;999.90;;;20.60;99.90;;;;;;5091593;28;20071;-80
2023/09/09 06:02:03;;;;;;;1999.90;999.90;;;20.60;99.90;;;;;;5074952;28;20490;-80
2023/09/09 06:04:29;;;;;;;1999.90;999.90;;;20.60;99.90;;;;;;5088155;28;20032;-75
2023/09/09 06:06:54;;;;;;;1999.90;999.90;;;20.60;99.90;;;;;;5093665;28;20491;-75
2023/09/09 06:09:20;;;;;;;1999.90;999.90;;;20.70;99.90;;;;;;5089229;28;20016;-80
2023/09/09 06:11:45;;;;;;;1999.90;999.90;;;20.80;99.90;;;;;;5079837;28;20529;-76
2023/09/09 06:14:11;;;;;;;1999.90;999.90;;;20.90;99.90;;;;;;5076930;28;20035;-75
2023/09/09 06:16:37;;;;;;;1999.90;999.90;;;20.90;99.90;;;;;;5081918;28;20036;-75
2023/09/09 06:19:02;;;;;;;1999.90;999.90;;;20.90;99.90;;;;;;5088540;28;20028;-80
2023/09/09 06:21:28;;;;;;;1999.90;999.90;;;21.00;99.90;;;;;;5092652;28;20495;-75
2023/09/09 06:23:54;;;;;;;1999.90;999.90;;;21.00;99.90;;;;;;5089910;28;20108;-80
2023/09/09 06:26:20;;;;;;;1999.90;999.90;;;21.10;99.90;;;;;;5093387;28;20035;-75
2023/09/09 06:28:45;;;;;;;1999.90;999.90;;;21.10;99.90;;;;;;5092124;28;20032;-76
2023/09/09 06:31:11;;;;;;;1999.90;999.90;;;21.10;99.90;;;;;;5093365;28;20099;-75
2023/09/09 06:33:37;;;;;;;1999.90;999.90;;;21.10;99.90;;;;;;5093160;28;20058;-75
2023/09/09 06:36:02;;;;;;;1999.90;999.90;;;21.10;99.90;;;;;;5093151;28;20032;-80
2023/09/09 06:38:28;;;;;;;1999.90;999.90;;;21.20;99.90;;;;;;5093176;28;20028;-80
2023/09/09 06:40:54;;;;;;;1999.90;999.90;;;21.30;99.90;;;;;;5093200;28;20063;-75
2023/09/09 06:43:20;;;;;;;1999.90;999.90;;;21.30;99.90;;;;;;5093167;28;20101;-81
2023/09/09 06:45:46;;;;;;;1999.90;999.90;;;21.40;99.90;;;;;;5093031;28;20016;-80
2023/09/09 06:48:17;;;;;;;1999.90;999.90;;;21.50;99.90;;;;;;5091866;28;20077;-79
2023/09/09 06:50:49;;;;;;;1999.90;999.90;;;21.60;99.90;;;;;;5072955;28;20024;-80
2023/09/09 06:53:15;;;;;;;1999.90;999.90;;;21.70;99.90;;;;;;5080175;28;20434;-75
2023/09/09 06:55:44;;;;;;;1999.90;999.90;;;21.90;99.90;;;;;;5077820;28;20025;-76
2023/09/09 06:58:10;;;;;;;1999.90;999.90;;;22.00;99.90;;;;;;5083106;28;20028;-80
2023/09/09 07:00:36;;;;;;;1999.90;999.90;;;22.20;99.90;;;;;;5083669;28;20430;-80
2023/09/09 07:03:03;;;;;;;1999.90;999.90;;;22.30;99.90;;;;;;5091571;28;20020;-80
2023/09/09 07:05:31;;;;;;;1999.90;999.90;;;22.50;99.90;;;;;;5073154;28;20504;-80
2023/09/09 07:07:56;;;;;;;1999.90;999.90;;;22.70;99.90;;;;;;5072628;28;20096;-76
2023/09/09 07:10:22;;;;;;;1999.90;999.90;;;22.90;99.90;;;;;;5077653;28;20431;-80
2023/09/09 07:12:49;;;;;;;1999.90;999.90;;;23.20;99.90;;;;;;5080287;28;20051;-80
2023/09/09 07:15:15;;;;;;;1999.90;999.90;;;23.40;99.90;;;;;;5085918;28;20506;-76
2023/09/09 07:17:43;;;;;;;1999.90;999.90;;;23.60;99.90;;;;;;5079013;28;20049;-80
2023/09/09 07:20:09;;;;;;;1999.90;999.90;;;23.80;99.90;;;;;;5076670;28;20031;-81
2023/09/09 07:22:34;;;;;;;1999.90;999.90;;;24.00;99.90;;;;;;5076241;28;20028;-80
2023/09/09 07:25:00;;;;;;;1999.90;999.90;;;24.20;99.90;;;;;;5092183;28;20028;-75
2023/09/09 07:27:26;;;;;;;1999.90;999.90;;;24.30;99.90;;;;;;5095137;28;20075;-80
2023/09/09 07:29:51;;;;;;;1999.90;999.90;;;24.50;99.90;;;;;;5094656;28;20215;-80
2023/09/09 07:32:17;;;;;;;1999.90;999.90;;;24.60;99.90;;;;;;5091781;28;20031;-76
2023/09/09 07:34:42;;;;;;;1999.90;999.90;;;24.50;99.90;;;;;;5084407;28;20029;-75
2023/09/09 07:37:08;;;;;;;1999.90;999.90;;;24.30;99.90;;;;;;5085545;28;20110;-80
2023/09/09 07:39:49;;;;;;;1999.90;999.90;;;24.20;99.90;;;;;;5085245;28;20066;-75
2023/09/09 07:42:15;;;;;;;1999.90;999.90;;;24.30;99.90;;;;;;5074784;28;20029;-80
2023/09/09 07:44:41;;;;;;;1999.90;999.90;;;24.60;99.90;;;;;;5076155;28;20035;-76
2023/09/09 07:47:08;;;;;;;1999.90;999.90;;;26.30;99.00;;;;;;5076046;28;20078;-81
2023/09/09 07:49:34;;;;;;;1999.90;999.90;;;28.10;96.40;;;;;;5076331;28;20051;-81
2023/09/09 07:52:00;;;;;;;1999.90;999.90;;;28.70;95.00;;;;;;5075914;28;20498;-81
2023/09/09 07:54:26;;;;;;;1999.90;999.90;;;29.60;94.10;;;;;;5075942;28;20355;-80
2023/09/09 07:56:53;;;;;;;1999.90;999.90;;;29.70;93.20;;;;;;5084425;28;20020;-81
2023/09/09 07:59:18;;;;;;;1999.90;999.90;;;30.00;92.90;;;;;;5078569;28;20107;-73
2023/09/09 08:01:44;;;;;;;1999.90;999.90;;;30.80;92.50;;;;;;5092685;28;20032;-78
2023/09/09 08:04:10;;;;;;;1999.90;999.90;;;30.70;91.90;;;;;;5082938;28;20515;-74
2023/09/09 08:06:36;;;;;;;1999.90;999.90;;;30.80;92.00;;;;;;5075390;28;20066;-79
2023/09/09 08:09:02;;;;;;;1999.90;999.90;;;30.60;91.80;;;;;;5070811;28;20469;-79
2023/09/09 08:11:27;;;;;;;1999.90;999.90;;;31.00;91.70;;;;;;5066519;28;20020;-73
2023/09/09 08:13:53;;;;;;;1999.90;999.90;;;31.40;91.10;;;;;;5079143;28;20103;-73
2023/09/09 08:16:18;;;;;;;1999.90;999.90;;;31.20;91.20;;;;;;5084419;28;20021;-78
2023/09/09 08:18:44;;;;;;;1999.90;999.90;;;31.90;90.80;;;;;;5084303;28;20028;-74
2023/09/09 08:21:12;;;;;;;1999.90;999.90;;;32.20;90.60;;;;;;5095707;28;20017;-79
2023/09/09 08:23:38;;;;;;;1999.90;999.90;;;32.60;90.60;;;;;;5095065;28;20020;-74
2023/09/09 08:26:04;;;;;;;1999.90;999.90;;;32.90;90.10;;;;;;5091738;28;20051;-74
2023/09/09 08:28:29;;;;;;;1999.90;999.90;;;33.20;90.00;;;;;;5085115;28;20032;-79
2023/09/09 08:31:01;;;;;;;1999.90;999.90;;;33.80;88.50;;;;;;5095652;28;20065;-80
2023/09/09 08:33:27;;;;;;;1999.90;999.90;;;34.20;88.10;;;;;;5095993;28;20052;-80
2023/09/09 08:36:00;;;;;;;1999.90;999.90;;;34.10;87.50;;;;;;5094850;28;20086;-80
2023/09/09 08:38:25;;;;;;;1999.90;999.90;;;34.10;87.00;;;;;;5094443;28;20111;-74
2023/09/09 08:41:11;;;;;;;1999.90;999.90;;;33.60;88.00;;;;;;5095574;28;20450;-79
2023/09/09 08:43:54;;;;;;;1999.90;999.90;;;34.10;87.90;;;;;;5095356;28;20020;-79
2023/09/09 08:46:21;;;;;;;1999.90;999.90;;;34.40;86.80;;;;;;5095345;28;20024;-78
2023/09/09 08:48:50;;;;;;;1999.90;999.90;;;35.20;85.50;;;;;;5095284;28;20111;-80
2023/09/09 08:51:27;;;;;;;1999.90;999.90;;;35.50;84.70;;;;;;5095334;28;20024;-74
2023/09/09 08:53:55;;;;;;;1999.90;999.90;;;35.60;83.60;;;;;;5091626;28;20035;-79
2023/09/09 08:56:21;;;;;;;1999.90;999.90;;;35.30;83.60;;;;;;5093092;28;20124;-75
2023/09/09 08:58:47;;;;;;;1999.90;999.90;;;34.50;83.80;;;;;;5083753;28;20531;-80
2023/09/09 09:01:15;;;;;;;1999.90;999.90;;;35.30;84.20;;;;;;5079123;28;20104;-80
2023/09/09 09:03:42;;;;;;;1999.90;999.90;;;35.10;83.80;;;;;;5094826;28;20028;-75
2023/09/09 09:06:09;;;;;;;1999.90;999.90;;;35.00;82.90;;;;;;5094563;28;20035;-74
2023/09/09 09:08:35;;;;;;;1999.90;999.90;;;35.30;83.10;;;;;;5087274;28;20431;-74
2023/09/09 09:11:04;;;;;;;1999.90;999.90;;;35.50;82.70;;;;;;5074556;28;20052;-80
2023/09/09 09:13:33;;;;;;;1999.90;999.90;;;36.00;82.60;;;;;;5075386;28;20031;-80
2023/09/09 09:16:00;;;;;;;1999.90;999.90;;;35.90;82.40;;;;;;5087785;28;20021;-75
2023/09/09 09:18:26;;;;;;;1999.90;999.90;;;36.40;81.30;;;;;;5074350;28;20021;-79
2023/09/09 09:20:52;;;;;;;1999.90;999.90;;;36.30;81.10;;;;;;5073230;28;20013;-79
2023/09/09 09:23:18;;;;;;;1999.90;999.90;;;35.60;81.10;;;;;;5075389;28;20024;-76
2023/09/09 09:25:45;;;;;;;1999.90;999.90;;;35.80;81.50;;;;;;5094192;28;20032;-75
2023/09/09 09:28:12;;;;;;;1999.90;999.90;;;36.20;81.70;;;;;;5094413;28;20043;-79
2023/09/09 09:30:38;;;;;;;1999.90;999.90;;;35.90;81.30;;;;;;5094168;28;20034;-76
2023/09/09 09:33:04;;;;;;;1999.90;999.90;;;35.60;81.30;;;;;;5094073;28;20450;-80
2023/09/09 09:35:31;;;;;;;1999.90;999.90;;;34.70;82.10;;;;;;5092314;28;20028;-80
2023/09/09 09:38:02;;;;;;;1999.90;999.90;;;34.00;82.90;;;;;;5094061;28;20031;-80
2023/09/09 09:40:29;;;;;;;1999.90;999.90;;;33.60;83.60;;;;;;5093892;28;20551;-80
2023/09/09 09:42:55;;;;;;;1999.90;999.90;;;33.40;84.00;;;;;;5094299;28;20024;-75
2023/09/09 09:45:25;;;;;;;1999.90;999.90;;;33.20;84.00;;;;;;5093716;28;20055;-78
2023/09/09 09:47:50;;;;;;;1999.90;999.90;;;33.20;83.60;;;;;;5093798;28;20032;-80
2023/09/09 09:50:30;;;;;;;1999.90;999.90;;;33.70;83.70;;;;;;5092726;28;20031;-80
2023/09/09 09:53:04;;;;;;;1999.90;999.90;;;34.20;83.40;;;;;;5093763;28;20030;-79
2023/09/09 09:55:35;;;;;;;1999.90;999.90;;;33.60;83.50;;;;;;5093690;28;20073;-75
2023/09/09 09:58:06;;;;;;;1999.90;999.90;;;33.00;83.90;;;;;;5081800;28;20032;-74
2023/09/09 10:00:32;;;;;;;1999.90;999.90;;;32.50;84.40;;;;;;5074328;28;20482;-80
2023/09/09 10:03:00;;;;;;;1999.90;999.90;;;32.30;84.80;;;;;;5078872;28;20555;-75
2023/09/09 10:05:28;;;;;;;1999.90;999.90;;;33.00;85.30;;;;;;5092069;28;20044;-74
2023/09/09 10:08:09;;;;;;;1999.90;999.90;;;32.80;83.80;;;;;;5092699;28;20399;-79
2023/09/09 10:10:37;;;;;;;1999.90;999.90;;;33.00;84.20;;;;;;5089326;28;20081;-75
2023/09/09 10:13:22;;;;;;;1999.90;999.90;;;32.50;83.70;;;;;;5072825;28;20475;-74
2023/09/09 10:15:49;;;;;;;1999.90;999.90;;;32.50;85.40;;;;;;5086781;28;20020;-78
2023/09/09 10:18:16;;;;;;;1999.90;999.90;;;32.60;84.20;;;;;;5071640;28;20499;-79
2023/09/09 10:20:42;;;;;;;1999.90;999.90;;;32.70;85.00;;;;;;5073023;28;20069;-78
2023/09/09 10:23:08;;;;;;;1999.90;999.90;;;32.30;83.70;;;;;;5072886;28;20494;-75
2023/09/09 10:25:34;;;;;;;1999.90;999.90;;;31.90;84.60;;;;;;5093339;28;20028;-81
2023/09/09 10:28:01;;;;;;;1999.90;999.90;;;31.60;84.90;;;;;;5091953;28;20024;-80
2023/09/09 10:30:28;;;;;;;1999.90;999.90;;;31.60;85.30;;;;;;5093177;28;20020;-80
2023/09/09 10:32:59;;;;;;;1999.90;999.90;;;31.80;85.50;;;;;;5095429;28;20482;-79
2023/09/09 10:35:24;;;;;;;1999.90;999.90;;;32.20;85.50;;;;;;5094128;28;20073;-76
2023/09/09 10:37:51;;;;;;;1999.90;999.90;;;32.10;84.80;;;;;;5093227;28;20032;-76
2023/09/09 10:40:18;;;;;;;1999.90;999.90;;;32.10;85.20;;;;;;5095470;28;20540;-80
2023/09/09 10:42:44;;;;;;;1999.90;999.90;;;32.10;85.40;;;;;;5098124;28;20082;-81
2023/09/09 10:45:39;;;;;;;1999.90;999.90;;;32.10;84.00;;;;;;5097334;28;20044;-80
2023/09/09 10:48:06;;;;;;;1999.90;999.90;;;32.10;84.20;;;;;;5092846;28;20032;-75
2023/09/09 10:50:49;;;;;;;1999.90;999.90;;;32.40;84.30;;;;;;5092869;28;20020;-75
2023/09/09 10:53:26;;;;;;;1999.90;999.90;;;32.30;84.30;;;;;;5093055;28;20059;-80
2023/09/09 10:56:11;;;;;;;1999.90;999.90;;;32.40;83.60;;;;;;5090539;28;20035;-75
2023/09/09 10:58:40;;;;;;;1999.90;999.90;;;32.70;83.50;;;;;;5087076;28;20119;-80
2023/09/09 11:01:07;;;;;;;1999.90;999.90;;;32.90;82.60;;;;;;5086609;28;20433;-75
2023/09/09 11:03:46;;;;;;;1999.90;999.90;;;32.80;82.70;;;;;;5080836;28;20483;-75
2023/09/09 11:06:24;;;;;;;1999.90;999.90;;;32.60;83.30;;;;;;5079058;28;20071;-80
2023/09/09 11:08:56;;;;;;;1999.90;999.90;;;32.30;82.80;;;;;;5072673;28;20104;-75
2023/09/09 11:11:42;;;;;;;1999.90;999.90;;;32.40;83.00;;;;;;5072458;28;20021;-79
2023/09/09 11:14:09;;;;;;;1999.90;999.90;;;32.60;82.40;;;;;;5074627;28;20503;-79
2023/09/09 11:16:40;;;;;;;1999.90;999.90;;;32.80;81.40;;;;;;5090437;28;20020;-79
2023/09/09 11:19:16;;;;;;;1999.90;999.90;;;32.70;81.20;;;;;;5092708;28;20039;-75
2023/09/09 11:21:44;;;;;;;1999.90;999.90;;;32.60;82.10;;;;;;5074735;28;20028;-80
2023/09/09 11:24:11;;;;;;;1999.90;999.90;;;33.00;80.70;;;;;;5072312;28;20020;-79
2023/09/09 11:26:43;;;;;;;1999.90;999.90;;;33.10;79.30;;;;;;5072306;28;20037;-75
2023/09/09 11:29:09;;;;;;;1999.90;999.90;;;33.10;79.50;;;;;;5072327;28;20027;-75
2023/09/09 11:31:35;;;;;;;1999.90;999.90;;;33.40;80.10;;;;;;5072566;28;20063;-80
2023/09/09 11:34:00;;;;;;;1999.90;999.90;;;33.40;80.00;;;;;;5072284;28;20499;-80
2023/09/09 11:36:28;;;;;;;1999.90;999.90;;;33.20;78.70;;;;;;5072133;28;20484;-78
2023/09/09 11:38:57;;;;;;;1999.90;999.90;;;33.00;79.00;;;;;;5072494;28;20035;-75
2023/09/09 11:41:24;;;;;;;1999.90;999.90;;;33.30;79.70;;;;;;5072285;28;20021;-76
2023/09/09 11:44:00;;;;;;;1999.90;999.90;;;33.40;80.50;;;;;;5072413;28;20024;-80
2023/09/09 11:46:27;;;;;;;1999.90;999.90;;;33.40;80.40;;;;;;5072184;28;20025;-80
2023/09/09 11:48:52;;;;;;;1999.90;999.90;;;33.20;79.70;;;;;;5072219;28;20055;-80
2023/09/09 11:51:20;;;;;;;1999.90;999.90;;;33.20;78.90;;;;;;5072326;28;20056;-80
2023/09/09 11:53:46;;;;;;;1999.90;999.90;;;33.30;78.80;;;;;;5073001;28;20386;-75
2023/09/09 11:56:15;;;;;;;1999.90;999.90;;;33.20;79.20;;;;;;5072472;28;20365;-79
2023/09/09 11:58:44;;;;;;;1999.90;999.90;;;33.50;79.60;;;;;;5073563;28;20024;-79